Time;durP1;ratioP1;P1;durP2;ratioP2;P2;SDS_P1;SDS_P2;PMS_P1;PMS_P2;Temp;Humidity;BMP_temperature;BMP_pressure;BME280_temperature;BME280_humidity;BME280_pressure;Samples;Min_cycle;Max_cycle;Signal;HPM_P1;HPM_P2
2022/08/03 00:01:17;;;;;;;15.77;9.00;;;24.00;40.80;;;;;;4994460;28;20270;-67
2022/08/03 00:03:43;;;;;;;18.33;9.67;;;23.80;39.10;;;;;;4998799;28;20196;-67
2022/08/03 00:06:09;;;;;;;25.63;8.33;;;23.80;39.80;;;;;;4998493;28;20471;-67
2022/08/03 00:08:35;;;;;;;13.97;8.00;;;24.00;39.30;;;;;;5000986;28;20213;-67
2022/08/03 00:11:00;;;;;;;27.20;10.10;;;24.20;38.00;;;;;;5004988;28;20487;-68
2022/08/03 00:13:35;;;;;;;12.10;7.67;;;24.10;40.00;;;;;;4995838;28;20179;-68
2022/08/03 00:16:01;;;;;;;14.10;8.33;;;24.10;41.00;;;;;;4992507;28;20231;-68
2022/08/03 00:18:26;;;;;;;11.97;8.07;;;24.20;40.60;;;;;;4996785;28;20436;-67
2022/08/03 00:20:52;;;;;;;16.97;10.17;;;24.30;38.70;;;;;;4989030;28;20198;-69
2022/08/03 00:23:17;;;;;;;14.57;8.73;;;24.30;38.80;;;;;;4995243;28;20828;-67
2022/08/03 00:25:43;;;;;;;14.90;7.80;;;24.00;39.80;;;;;;4994239;28;20265;-67
2022/08/03 00:28:09;;;;;;;15.60;8.60;;;23.90;41.20;;;;;;4999845;28;20680;-68
2022/08/03 00:30:35;;;;;;;13.90;7.90;;;23.80;40.00;;;;;;4991465;28;20193;-68
2022/08/03 00:33:01;;;;;;;10.73;7.67;;;23.90;40.30;;;;;;4994472;28;20182;-68
2022/08/03 00:35:28;;;;;;;11.47;7.77;;;24.00;40.20;;;;;;4998215;28;20450;-69
2022/08/03 00:37:54;;;;;;;13.90;7.60;;;24.00;40.90;;;;;;4998103;28;20222;-68
2022/08/03 00:40:20;;;;;;;13.87;8.07;;;23.80;41.80;;;;;;4986828;28;20989;-67
2022/08/03 00:42:55;;;;;;;14.90;8.20;;;23.70;41.70;;;;;;4994968;28;20434;-68
2022/08/03 00:45:23;;;;;;;13.20;8.50;;;23.70;43.00;;;;;;4981646;28;20815;-67
2022/08/03 00:47:49;;;;;;;15.83;8.53;;;23.60;42.60;;;;;;4993684;28;20592;-68
2022/08/03 00:50:16;;;;;;;12.93;8.03;;;23.50;43.80;;;;;;5000306;28;20785;-67
2022/08/03 00:52:42;;;;;;;12.90;7.73;;;23.50;44.50;;;;;;4999568;28;20425;-67
2022/08/03 00:55:09;;;;;;;15.83;8.53;;;23.50;43.50;;;;;;4996056;28;20450;-67
2022/08/03 00:57:35;;;;;;;15.07;9.53;;;23.50;42.60;;;;;;4993105;28;20741;-67
2022/08/03 01:00:00;;;;;;;14.07;9.07;;;23.60;42.30;;;;;;4991042;28;20433;-67
2022/08/03 01:02:27;;;;;;;18.00;8.37;;;23.60;43.00;;;;;;4992363;28;20547;-67
2022/08/03 01:04:53;;;;;;;13.87;9.07;;;23.50;43.40;;;;;;4999324;28;20680;-68
2022/08/03 01:07:22;;;;;;;17.57;10.17;;;23.70;41.00;;;;;;5002812;28;20467;-68
2022/08/03 01:10:20;;;;;;;15.40;10.30;;;23.70;41.80;;;;;;5004921;28;20917;-67
2022/08/03 01:12:58;;;;;;;23.43;16.83;;;23.70;43.00;;;;;;4986149;28;20450;-68
2022/08/03 01:15:52;;;;;;;26.33;12.53;;;;;;;;;;5012347;23;20607;-73
2022/08/03 01:18:21;;;;;;;30.70;14.07;;;;;;;;;;4985314;28;20436;-73
2022/08/03 01:20:50;;;;;;;23.13;10.17;;;23.30;42.30;;;;;;4995008;28;20420;-73
2022/08/03 01:23:43;;;;;;;32.43;16.50;;;23.30;42.80;;;;;;4979142;28;20423;-73
2022/08/03 01:26:40;;;;;;;23.77;13.80;;;23.20;43.00;;;;;;4987088;28;20464;-73
2022/08/03 01:29:42;;;;;;;25.40;13.93;;;23.10;43.90;;;;;;4992554;28;20441;-73
2022/08/03 01:32:10;;;;;;;28.57;12.37;;;;;;;;;;4991579;28;20431;-73
2022/08/03 01:34:42;;;;;;;16.83;10.90;;;23.10;43.90;;;;;;4987732;28;20978;-73
2022/08/03 01:37:08;;;;;;;21.33;10.63;;;;;;;;;;4993255;28;20534;-73
2022/08/03 01:39:36;;;;;;;23.37;11.00;;;;;;;;;;4994013;28;20502;-73
2022/08/03 01:42:05;;;;;;;24.83;10.83;;;;;;;;;;4994343;28;20913;-73
2022/08/03 01:44:35;;;;;;;22.77;9.83;;;23.00;43.00;;;;;;4993641;28;20441;-73
2022/08/03 01:47:02;;;;;;;16.17;9.10;;;;;;;;;;4993982;28;20948;-73
2022/08/03 01:49:30;;;;;;;16.47;8.90;;;23.20;43.80;;;;;;4992102;28;20564;-73
2022/08/03 01:51:58;;;;;;;15.67;8.70;;;23.40;42.50;;;;;;4994005;28;20430;-73
2022/08/03 01:54:26;;;;;;;16.07;7.63;;;23.30;42.00;;;;;;4986319;28;20426;-73
2022/08/03 01:56:55;;;;;;;17.73;8.50;;;23.50;41.40;;;;;;4986851;28;20419;-73
2022/08/03 01:59:21;;;;;;;16.87;8.50;;;23.50;42.20;;;;;;4985772;28;20520;-73
2022/08/03 02:01:48;;;;;;;18.07;9.10;;;23.50;42.40;;;;;;4987998;28;20432;-73
2022/08/03 02:04:17;;;;;;;17.10;8.50;;;;;;;;;;4993484;28;20866;-73
2022/08/03 02:06:45;;;;;;;18.03;8.43;;;23.00;43.90;;;;;;4992918;28;20930;-73
2022/08/03 02:09:12;;;;;;;16.50;8.90;;;22.90;43.80;;;;;;4994377;28;20436;-73
2022/08/03 02:11:39;;;;;;;21.90;10.27;;;;;;;;;;4993247;28;20811;-73
2022/08/03 02:14:06;;;;;;;15.07;9.20;;;;;;;;;;4991235;28;20486;-73
2022/08/03 02:16:34;;;;;;;17.87;8.20;;;22.70;44.30;;;;;;4993704;28;20900;-73
2022/08/03 02:19:01;;;;;;;18.07;9.27;;;;;;;;;;4986826;28;20443;-73
2022/08/03 02:21:29;;;;;;;18.10;9.10;;;22.80;45.20;;;;;;4992573;28;21042;-73
2022/08/03 02:23:54;;;;;;;23.97;11.40;;;22.70;45.10;;;;;;4992215;28;20791;-73
2022/08/03 02:26:21;;;;;;;21.87;10.23;;;;;;;;;;4994067;28;20484;-73
2022/08/03 02:28:51;;;;;;;29.67;9.50;;;;;;;;;;4986074;28;20432;-73
2022/08/03 02:31:23;;;;;;;23.77;9.70;;;22.70;45.00;;;;;;4990153;28;20919;-73
2022/08/03 02:33:54;;;;;;;20.70;9.80;;;;;;;;;;4992654;28;20450;-73
2022/08/03 02:36:24;;;;;;;36.10;10.17;;;22.70;46.20;;;;;;4993289;28;20841;-73
2022/08/03 02:38:51;;;;;;;21.37;10.07;;;;;;;;;;4985901;28;20544;-73
2022/08/03 02:41:23;;;;;;;20.73;9.73;;;22.70;45.60;;;;;;4993818;28;20509;-73
2022/08/03 02:43:53;;;;;;;16.63;9.10;;;22.70;45.60;;;;;;4991236;28;20681;-73
2022/08/03 02:46:24;;;;;;;25.80;10.60;;;;;;;;;;4990993;28;20618;-73
2022/08/03 02:48:52;;;;;;;19.00;9.63;;;22.70;45.40;;;;;;4992686;28;20841;-73
2022/08/03 02:51:18;;;;;;;18.03;8.90;;;;;;;;;;4992410;28;20667;-73
2022/08/03 02:53:46;;;;;;;17.97;8.57;;;22.50;45.10;;;;;;4989010;28;20837;-73
2022/08/03 02:56:12;;;;;;;16.03;9.13;;;22.60;45.50;;;;;;4993429;28;21106;-73
2022/08/03 02:58:42;;;;;;;22.10;8.70;;;22.40;46.30;;;;;;4991247;28;20451;-73
2022/08/03 03:01:09;;;;;;;21.87;9.30;;;22.40;45.70;;;;;;4992438;28;20426;-73
2022/08/03 03:03:36;;;;;;;13.30;8.30;;;;;;;;;;4987833;28;20447;-73
2022/08/03 03:06:03;;;;;;;29.30;9.80;;;;;;;;;;4982536;28;20497;-73
2022/08/03 03:08:29;;;;;;;17.00;8.77;;;22.50;46.60;;;;;;4991917;28;20444;-73
2022/08/03 03:11:00;;;;;;;19.83;9.67;;;22.50;46.80;;;;;;4992933;28;20469;-73
2022/08/03 03:13:29;;;;;;;22.57;10.37;;;22.50;47.10;;;;;;4992492;28;20469;-73
2022/08/03 03:16:00;;;;;;;25.37;12.60;;;22.40;46.10;;;;;;4993258;28;20898;-72
2022/08/03 03:18:27;;;;;;;29.70;12.73;;;22.50;45.40;;;;;;4991471;28;20523;-72
2022/08/03 03:20:54;;;;;;;33.47;14.23;;;22.40;45.80;;;;;;4991772;28;20467;-73
2022/08/03 03:23:22;;;;;;;36.33;13.33;;;22.30;45.60;;;;;;4992727;28;20926;-73
2022/08/03 03:25:48;;;;;;;27.03;13.00;;;22.20;46.40;;;;;;4985014;28;20473;-73
2022/08/03 03:28:14;;;;;;;26.83;13.27;;;;;;;;;;4992288;28;20536;-73
2022/08/03 03:30:41;;;;;;;27.10;13.10;;;;;;;;;;4990484;28;20435;-73
2022/08/03 03:33:07;;;;;;;19.40;11.67;;;;;;;;;;4991357;28;20481;-73
2022/08/03 03:35:33;;;;;;;21.07;11.57;;;22.20;47.50;;;;;;4981537;28;20443;-73
2022/08/03 03:37:59;;;;;;;30.47;12.37;;;;;;;;;;4987169;28;20439;-73
2022/08/03 03:40:26;;;;;;;26.30;12.37;;;22.00;47.70;;;;;;4990299;28;20868;-72
2022/08/03 03:42:52;;;;;;;24.87;12.23;;;22.00;48.00;;;;;;4989747;28;20935;-73
2022/08/03 03:45:19;;;;;;;31.40;13.57;;;22.10;48.20;;;;;;4991088;28;20451;-73
2022/08/03 03:47:46;;;;;;;29.90;11.80;;;;;;;;;;4991433;28;20242;-73
2022/08/03 03:50:12;;;;;;;33.43;12.87;;;22.20;47.90;;;;;;4985482;28;20783;-73
2022/08/03 03:52:38;;;;;;;45.97;12.63;;;;;;;;;;4989829;28;20437;-73
2022/08/03 03:55:04;;;;;;;25.73;10.50;;;;;;;;;;4991117;28;21065;-73
2022/08/03 03:57:30;;;;;;;29.67;12.37;;;;;;;;;;4991088;28;20841;-73
2022/08/03 03:59:56;;;;;;;20.73;11.10;;;;;;;;;;4988016;28;20430;-73
2022/08/03 04:02:22;;;;;;;20.67;11.20;;;;;;;;;;4980760;28;20474;-72
2022/08/03 04:13:20;;;;;;;21.87;11.10;;;22.20;47.80;;;;;;4991632;28;20446;-72
2022/08/03 04:15:47;;;;;;;19.60;10.60;;;22.30;46.70;;;;;;4992335;28;20467;-73
2022/08/03 04:18:15;;;;;;;19.73;10.37;;;22.40;47.30;;;;;;4987235;28;20439;-73
2022/08/03 04:20:46;;;;;;;21.53;11.13;;;22.30;47.50;;;;;;4992072;28;20778;-73
2022/08/03 04:23:12;;;;;;;24.47;11.70;;;;;;;;;;4991719;28;20490;-73
2022/08/03 04:25:40;;;;;;;19.40;11.10;;;22.30;47.90;;;;;;4983650;28;20469;-73
2022/08/03 04:28:07;;;;;;;17.90;10.70;;;22.40;47.30;;;;;;4981271;28;20449;-73
2022/08/03 04:30:36;;;;;;;20.27;10.33;;;22.40;48.30;;;;;;4992610;28;20549;-72
2022/08/03 04:33:02;;;;;;;27.53;11.70;;;;;;;;;;4989723;28;20438;-72
2022/08/03 04:35:31;;;;;;;17.93;10.47;;;;;;;;;;4989608;28;20491;-72
2022/08/03 04:38:01;;;;;;;25.47;10.67;;;22.30;48.40;;;;;;4987275;28;20450;-73
2022/08/03 04:40:31;;;;;;;23.43;11.20;;;22.30;48.60;;;;;;4991958;28;20520;-72
2022/08/03 04:42:58;;;;;;;18.63;10.43;;;22.40;48.00;;;;;;4982675;28;20426;-72
2022/08/03 04:45:24;;;;;;;21.67;10.30;;;;;;;;;;4985839;28;20466;-73
2022/08/03 04:47:51;;;;;;;19.70;9.70;;;;;;;;;;4988619;28;20485;-72
2022/08/03 04:50:17;;;;;;;21.20;9.23;;;;;;;;;;4991675;28;20906;-73
2022/08/03 04:52:43;;;;;;;18.13;8.60;;;22.00;47.90;;;;;;4983395;28;20431;-72
2022/08/03 04:55:09;;;;;;;21.63;8.80;;;;;;;;;;4989319;28;20471;-72
2022/08/03 04:57:35;;;;;;;18.77;8.30;;;;;;;;;;4990272;28;21002;-72
2022/08/03 05:00:01;;;;;;;28.90;11.40;;;;;;;;;;4989905;28;20524;-72
2022/08/03 05:02:27;;;;;;;19.63;10.47;;;;;;;;;;4989105;28;20431;-72
2022/08/03 05:04:53;;;;;;;27.60;11.60;;;;;;;;;;4991247;28;20446;-72
2022/08/03 05:07:19;;;;;;;24.10;10.33;;;;;;;;;;4964181;28;20474;-72
2022/08/03 05:09:45;;;;;;;20.83;10.47;;;;;;;;;;4991109;28;20457;-72
2022/08/03 05:12:11;;;;;;;25.80;11.40;;;;;;;;;;4989511;28;20464;-72
2022/08/03 05:14:38;;;;;;;21.00;10.57;;;;;;;;;;4989540;28;20443;-73
2022/08/03 05:17:08;;;;;;;21.67;12.90;;;;;;;;;;4990526;28;20474;-72
2022/08/03 05:19:34;;;;;;;26.17;12.17;;;;;;;;;;4991029;28;20440;-72
2022/08/03 05:22:00;;;;;;;37.20;12.77;;;;;;;;;;4986394;28;20585;-72
2022/08/03 05:24:26;;;;;;;24.90;12.50;;;;;;;;;;4988812;28;20435;-72
2022/08/03 05:26:52;;;;;;;23.27;10.83;;;;;;;;;;4991775;28;20495;-73
2022/08/03 05:29:18;;;;;;;22.17;11.03;;;;;;;;;;4989691;28;20821;-73
2022/08/03 05:31:44;;;;;;;22.80;10.40;;;;;;;;;;4984087;28;20436;-73
2022/08/03 05:34:10;;;;;;;27.70;11.20;;;;;;;;;;4990605;28;20449;-73
2022/08/03 05:36:36;;;;;;;32.33;13.90;;;;;;;;;;4983099;28;20459;-72
2022/08/03 05:39:02;;;;;;;34.47;12.70;;;;;;;;;;4988289;28;20440;-72
2022/08/03 05:41:28;;;;;;;24.67;13.87;;;;;;;;;;4990726;28;20443;-72
2022/08/03 05:43:54;;;;;;;27.23;13.87;;;;;;;;;;4983023;28;20421;-73
2022/08/03 05:46:21;;;;;;;20.63;12.90;;;23.20;43.50;;;;;;4983014;28;20492;-73
2022/08/03 05:48:47;;;;;;;28.37;13.60;;;22.80;44.70;;;;;;4986373;28;20450;-72
2022/08/03 05:51:12;;;;;;;25.43;12.33;;;23.00;45.30;;;;;;4982775;28;20438;-73
2022/08/03 05:53:42;;;;;;;20.93;10.97;;;;;;;;;;4990604;28;20703;-73
2022/08/03 05:56:09;;;;;;;25.40;10.67;;;;;;;;;;4985861;28;20212;-73
2022/08/03 05:58:35;;;;;;;24.10;12.23;;;;;;;;;;4992135;28;20540;-73
2022/08/03 06:01:01;;;;;;;27.13;12.17;;;;;;;;;;4990714;28;20529;-72
2022/08/03 06:03:27;;;;;;;27.80;13.27;;;;;;;;;;4991267;28;20443;-72
2022/08/03 06:05:55;;;;;;;32.13;12.77;;;23.10;44.80;;;;;;4984539;28;20904;-72
2022/08/03 06:08:21;;;;;;;22.73;11.10;;;;;;;;;;4994443;28;20925;-73
2022/08/03 06:10:47;;;;;;;26.80;12.37;;;;;;;;;;4990431;28;20442;-72
2022/08/03 06:13:13;;;;;;;24.47;11.67;;;;;;;;;;4992561;28;20906;-72
2022/08/03 06:15:39;;;;;;;19.63;12.03;;;;;;;;;;4987357;28;20556;-72
2022/08/03 06:18:06;;;;;;;29.00;11.07;;;;;;;;;;4993995;28;20427;-73
2022/08/03 06:20:32;;;;;;;28.93;11.27;;;23.20;42.30;;;;;;4986196;28;20503;-73
2022/08/03 06:22:59;;;;;;;19.33;9.93;;;23.20;43.50;;;;;;4989731;28;20511;-73
2022/08/03 06:25:25;;;;;;;21.57;9.97;;;23.60;43.50;;;;;;4987733;28;20204;-72
2022/08/03 06:27:50;;;;;;;17.20;9.30;;;23.70;42.30;;;;;;4994605;28;20470;-72
2022/08/03 06:30:17;;;;;;;19.67;9.00;;;24.00;42.00;;;;;;4994732;28;20418;-72
2022/08/03 06:32:43;;;;;;;17.50;8.80;;;;;;;;;;4993383;28;20179;-73
2022/08/03 06:35:09;;;;;;;22.13;8.97;;;23.70;41.10;;;;;;4992921;28;20965;-72
2022/08/03 06:37:45;;;;;;;19.60;9.40;;;;;;;;;;4989024;28;20445;-72
2022/08/03 06:40:13;;;;;;;21.90;8.90;;;23.70;41.10;;;;;;4992883;28;20431;-73
2022/08/03 06:42:39;;;;;;;19.20;8.27;;;;;;;;;;4985243;28;20425;-72
2022/08/03 06:45:07;;;;;;;15.80;8.43;;;23.70;41.60;;;;;;4986845;28;20438;-73
2022/08/03 06:47:33;;;;;;;25.10;8.67;;;;;;;;;;4991786;28;20465;-72
2022/08/03 06:49:59;;;;;;;25.80;9.43;;;24.10;40.20;;;;;;4989919;28;20497;-72
2022/08/03 06:52:25;;;;;;;22.27;8.43;;;24.30;40.20;;;;;;4993130;28;20432;-73
2022/08/03 06:54:51;;;;;;;23.90;9.90;;;;;;;;;;4992172;28;20568;-73
2022/08/03 06:57:17;;;;;;;20.13;8.90;;;24.30;40.40;;;;;;4992907;28;20323;-73
2022/08/03 06:59:43;;;;;;;20.77;8.90;;;;;;;;;;4992633;28;20443;-73
2022/08/03 07:02:10;;;;;;;19.70;8.47;;;24.60;39.00;;;;;;4991858;28;20468;-73
2022/08/03 07:04:36;;;;;;;15.50;7.40;;;;;;;;;;4985911;28;20511;-72
2022/08/03 07:07:02;;;;;;;17.30;8.23;;;;;;;;;;4990333;28;20957;-73
2022/08/03 07:09:28;;;;;;;16.37;8.40;;;;;;;;;;4985566;28;20424;-73
2022/08/03 07:11:54;;;;;;;23.63;9.23;;;;;;;;;;4992309;28;20413;-73
2022/08/03 07:14:21;;;;;;;24.53;9.20;;;;;;;;;;4992325;28;20417;-73
2022/08/03 07:16:46;;;;;;;18.70;8.60;;;24.10;39.20;;;;;;5023905;23;20531;-69
2022/08/03 07:19:12;;;;;;;22.33;9.60;;;24.70;38.90;;;;;;4985446;28;20861;-69
2022/08/03 07:21:37;;;;;;;11.40;9.30;;;24.60;39.00;;;;;;4991357;28;20180;-72
2022/08/03 07:24:03;;;;;;;19.63;8.30;;;24.40;39.50;;;;;;4991448;28;20747;-69
2022/08/03 07:26:29;;;;;;;11.43;9.20;;;24.70;38.80;;;;;;4977675;28;20218;-69
2022/08/03 07:28:55;;;;;;;11.90;8.20;;;24.70;39.90;;;;;;4972923;28;20417;-69
2022/08/03 07:31:20;;;;;;;10.27;8.10;;;25.40;39.70;;;;;;4972975;28;20183;-69
2022/08/03 07:33:46;;;;;;;12.00;8.67;;;25.50;37.20;;;;;;4972469;28;20549;-70
2022/08/03 07:36:12;;;;;;;12.50;9.17;;;25.50;37.30;;;;;;4970997;28;20575;-70
2022/08/03 07:38:37;;;;;;;13.80;9.23;;;25.30;37.30;;;;;;4972330;28;20190;-70
2022/08/03 07:41:03;;;;;;;10.40;7.90;;;25.50;37.70;;;;;;4972867;28;20193;-69
2022/08/03 07:43:29;;;;;;;27.23;8.00;;;25.80;36.90;;;;;;4973927;28;20245;-70
2022/08/03 07:45:54;;;;;;;22.27;9.30;;;26.20;35.60;;;;;;4972684;28;20583;-70
2022/08/03 07:48:20;;;;;;;11.63;8.43;;;26.10;35.20;;;;;;4973700;28;20174;-70
2022/08/03 07:50:46;;;;;;;14.37;8.90;;;25.60;36.20;;;;;;4972431;28;20646;-70
2022/08/03 07:53:11;;;;;;;11.37;8.63;;;25.30;37.10;;;;;;4971518;28;20224;-69
2022/08/03 07:55:37;;;;;;;9.63;7.70;;;25.70;36.10;;;;;;4967994;28;20579;-69
2022/08/03 07:58:08;;;;;;;16.80;7.07;;;25.80;35.80;;;;;;4966758;28;20755;-69
2022/08/03 08:00:35;;;;;;;10.80;7.70;;;25.70;36.30;;;;;;4973498;28;20545;-69
2022/08/03 08:03:01;;;;;;;15.90;8.13;;;25.90;36.20;;;;;;4971169;28;20433;-69
2022/08/03 08:05:27;;;;;;;13.70;6.93;;;25.50;36.50;;;;;;4972767;28;20449;-69
2022/08/03 08:07:53;;;;;;;14.10;7.10;;;25.70;36.90;;;;;;4973185;28;20964;-69
2022/08/03 08:10:19;;;;;;;8.37;6.73;;;25.60;36.30;;;;;;4961740;28;20450;-69
2022/08/03 08:12:44;;;;;;;6.77;6.20;;;26.20;35.10;;;;;;4966943;28;20944;-69
2022/08/03 08:15:10;;;;;;;10.60;6.33;;;26.20;35.20;;;;;;4964505;28;20447;-69
2022/08/03 08:17:47;;;;;;;8.23;6.27;;;26.40;34.90;;;;;;4971654;28;20186;-69
2022/08/03 08:20:29;;;;;;;7.87;6.70;;;26.40;34.20;;;;;;4972152;28;20167;-69
2022/08/03 08:22:56;;;;;;;8.57;6.90;;;26.80;33.30;;;;;;4971796;28;20512;-69
2022/08/03 08:25:22;;;;;;;9.30;6.07;;;27.00;33.40;;;;;;4969857;28;20449;-68
2022/08/03 08:27:49;;;;;;;8.70;6.77;;;27.10;33.20;;;;;;4967368;28;20600;-69
2022/08/03 08:30:20;;;;;;;12.53;6.53;;;26.80;34.40;;;;;;4971141;28;20182;-69
2022/08/03 08:32:46;;;;;;;8.17;6.57;;;27.10;33.50;;;;;;4966313;28;20425;-70
2022/08/03 08:35:12;;;;;;;8.63;6.97;;;27.40;32.70;;;;;;4964262;28;20438;-69
2022/08/03 08:37:39;;;;;;;8.30;6.83;;;27.20;32.90;;;;;;4972442;28;20485;-70
2022/08/03 08:40:05;;;;;;;10.33;6.47;;;27.30;33.40;;;;;;4972603;28;20516;-69
2022/08/03 08:42:31;;;;;;;9.60;6.50;;;27.50;32.10;;;;;;4968810;28;20926;-69
2022/08/03 08:44:58;;;;;;;11.80;6.37;;;27.60;32.50;;;;;;4967628;28;20421;-69
2022/08/03 08:47:28;;;;;;;6.90;5.80;;;28.00;32.00;;;;;;4971759;28;20552;-69
2022/08/03 08:49:54;;;;;;;5.93;5.40;;;27.50;32.90;;;;;;4968449;28;20421;-69
2022/08/03 08:52:26;;;;;;;10.33;5.30;;;27.40;33.10;;;;;;4970200;28;20476;-69
2022/08/03 08:55:02;;;;;;;13.77;5.77;;;27.40;33.20;;;;;;4966098;28;20496;-69
2022/08/03 08:57:31;;;;;;;7.00;5.73;;;27.60;33.20;;;;;;4972354;28;20490;-69
2022/08/03 08:59:58;;;;;;;6.03;5.63;;;28.10;32.60;;;;;;4972409;28;20517;-69
2022/08/03 09:02:24;;;;;;;8.93;5.40;;;28.30;31.60;;;;;;4970463;28;20432;-69
2022/08/03 09:04:50;;;;;;;12.57;5.40;;;28.30;31.60;;;;;;4965907;28;20426;-69
2022/08/03 09:07:16;;;;;;;6.10;5.10;;;28.40;30.00;;;;;;4972188;28;20822;-69
2022/08/03 09:09:42;;;;;;;5.63;4.70;;;28.70;29.40;;;;;;4972507;28;20422;-69
2022/08/03 09:12:08;;;;;;;7.13;5.37;;;29.20;30.00;;;;;;4971798;28;20409;-69
2022/08/03 09:14:34;;;;;;;16.23;5.23;;;28.80;28.90;;;;;;4972266;28;20770;-69
2022/08/03 09:17:01;;;;;;;7.93;4.67;;;28.90;29.10;;;;;;4972359;28;20321;-69
2022/08/03 09:19:29;;;;;;;18.83;5.13;;;29.30;29.60;;;;;;4971288;28;20642;-70
2022/08/03 09:22:17;;;;;;;6.23;4.50;;;29.70;28.70;;;;;;4965842;28;20933;-69
2022/08/03 09:24:57;;;;;;;6.63;4.27;;;30.00;28.30;;;;;;4971247;28;20951;-70
2022/08/03 09:27:23;;;;;;;6.30;4.37;;;30.20;27.40;;;;;;4971830;28;20469;-69
2022/08/03 09:29:51;;;;;;;9.93;4.20;;;30.10;26.50;;;;;;4972289;28;20959;-69
2022/08/03 09:32:25;;;;;;;16.57;4.50;;;29.80;27.00;;;;;;4967789;28;20457;-69
2022/08/03 09:34:52;;;;;;;13.93;4.57;;;30.00;27.40;;;;;;4968433;28;20413;-70
2022/08/03 09:37:19;;;;;;;6.13;4.30;;;29.80;27.40;;;;;;4975984;28;20939;-70
2022/08/03 09:39:46;;;;;;;6.03;4.43;;;30.20;27.70;;;;;;4968170;28;20425;-69
2022/08/03 09:42:11;;;;;;;4.00;3.90;;;30.40;27.50;;;;;;4967823;28;20419;-70
2022/08/03 09:44:42;;;;;;;4.43;4.07;;;30.80;27.00;;;;;;4973951;28;20797;-69
2022/08/03 09:47:09;;;;;;;5.73;4.60;;;31.10;26.30;;;;;;4970245;28;20689;-69
2022/08/03 09:49:42;;;;;;;7.83;4.47;;;31.10;26.10;;;;;;4975539;28;20424;-70
2022/08/03 09:52:21;;;;;;;7.37;4.57;;;31.30;27.20;;;;;;4975483;28;20428;-70
2022/08/03 09:54:55;;;;;;;4.87;4.13;;;31.40;27.30;;;;;;4967406;28;20965;-68
2022/08/03 09:57:23;;;;;;;10.33;3.87;;;31.40;24.40;;;;;;4975776;28;20433;-70
2022/08/03 09:59:50;;;;;;;4.50;4.03;;;31.30;24.80;;;;;;4972997;28;20461;-68
2022/08/03 10:02:24;;;;;;;5.60;4.20;;;31.50;25.50;;;;;;4969843;28;20433;-70
2022/08/03 10:04:51;;;;;;;6.63;4.13;;;31.60;25.30;;;;;;4975078;28;20491;-70
2022/08/03 10:07:19;;;;;;;4.63;4.00;;;31.20;24.10;;;;;;4967546;28;20472;-69
2022/08/03 10:09:53;;;;;;;4.70;3.97;;;30.70;24.90;;;;;;4970914;28;20436;-70
2022/08/03 10:12:20;;;;;;;4.70;3.70;;;31.20;25.10;;;;;;4973709;28;20421;-68
2022/08/03 10:14:46;;;;;;;5.50;3.73;;;30.60;24.20;;;;;;4972142;28;20438;-69
2022/08/03 10:17:12;;;;;;;5.03;3.70;;;30.70;25.30;;;;;;4972278;28;20532;-70
2022/08/03 10:19:39;;;;;;;6.70;3.90;;;31.30;25.10;;;;;;4973148;28;20505;-69
2022/08/03 10:22:18;;;;;;;3.73;3.40;;;30.60;24.70;;;;;;4970548;28;20803;-68
2022/08/03 10:25:01;;;;;;;5.50;3.73;;;31.20;24.30;;;;;;4959763;28;20577;-68
2022/08/03 10:27:32;;;;;;;8.60;3.80;;;31.60;24.50;;;;;;4969556;28;20460;-69
2022/08/03 10:30:03;;;;;;;5.70;3.93;;;32.20;23.20;;;;;;4974983;28;20425;-69
2022/08/03 10:32:59;;;;;;;5.23;3.53;;;32.40;22.20;;;;;;4974645;28;20776;-70
2022/08/03 10:35:25;;;;;;;4.33;4.03;;;32.30;23.00;;;;;;4973870;28;20464;-70
2022/08/03 10:37:58;;;;;;;7.43;3.57;;;32.00;22.50;;;;;;4973822;28;20540;-69
2022/08/03 10:40:29;;;;;;;6.60;3.73;;;31.50;24.00;;;;;;4970566;28;20465;-69
2022/08/03 10:43:02;;;;;;;8.20;3.60;;;31.80;23.60;;;;;;4969697;28;20944;-70
2022/08/03 10:45:33;;;;;;;4.20;3.70;;;32.60;22.70;;;;;;4969642;28;20825;-70
2022/08/03 10:47:59;;;;;;;6.10;3.60;;;32.60;22.50;;;;;;4973997;28;20460;-69
2022/08/03 10:50:25;;;;;;;4.87;3.53;;;32.70;21.10;;;;;;4974722;28;20430;-69
2022/08/03 10:53:00;;;;;;;4.33;4.00;;;31.80;22.10;;;;;;4973812;28;20429;-69
2022/08/03 10:58:37;;;;;;;4.57;3.43;;;32.20;20.90;;;;;;4971179;28;20476;-69
2022/08/03 11:01:10;;;;;;;7.17;3.60;;;32.50;23.00;;;;;;4969981;28;21630;-69
2022/08/03 11:03:51;;;;;;;4.13;3.27;;;32.90;20.10;;;;;;4973242;28;20437;-68
2022/08/03 11:06:20;;;;;;;4.20;3.77;;;33.00;19.60;;;;;;4971537;28;20465;-69
2022/08/03 11:08:47;;;;;;;4.80;3.30;;;32.60;20.80;;;;;;4973839;28;20928;-68
2022/08/03 11:11:16;;;;;;;3.50;3.30;;;32.90;20.10;;;;;;4970562;28;20867;-68
2022/08/03 11:14:02;;;;;;;4.80;3.70;;;33.00;19.70;;;;;;4972218;28;20465;-69
2022/08/03 11:16:28;;;;;;;5.00;3.20;;;33.20;20.00;;;;;;4966530;28;20665;-69
2022/08/03 11:19:06;;;;;;;9.10;3.53;;;33.10;19.70;;;;;;4973676;28;20437;-69
2022/08/03 11:21:50;;;;;;;3.57;3.40;;;33.90;20.10;;;;;;4968084;28;20425;-69
2022/08/03 11:24:42;;;;;;;3.23;3.00;;;33.90;18.10;;;;;;4973277;28;20428;-69
2022/08/03 11:27:16;;;;;;;5.00;3.80;;;34.30;19.10;;;;;;4972304;28;20461;-69
2022/08/03 11:30:01;;;;;;;3.10;2.90;;;33.40;18.60;;;;;;4972830;28;20421;-69
2022/08/03 11:32:47;;;;;;;8.17;3.10;;;33.10;20.20;;;;;;4966784;28;20424;-69
2022/08/03 11:35:17;;;;;;;3.77;3.30;;;35.10;18.30;;;;;;4951583;28;20458;-69
2022/08/03 11:38:04;;;;;;;5.30;3.30;;;36.50;17.20;;;;;;4973642;28;20496;-69
2022/08/03 11:40:48;;;;;;;9.83;3.00;;;37.00;14.70;;;;;;4967076;28;20425;-70
2022/08/03 11:43:29;;;;;;;8.83;3.10;;;36.20;16.70;;;;;;4973037;28;20464;-70
2022/08/03 11:46:16;;;;;;;4.20;2.80;;;35.90;17.30;;;;;;4965418;28;20997;-69
2022/08/03 11:48:45;;;;;;;5.80;3.27;;;36.20;14.50;;;;;;4967554;28;20433;-69
2022/08/03 11:51:22;;;;;;;3.97;3.10;;;35.10;15.90;;;;;;4969786;28;20441;-69
2022/08/03 11:53:57;;;;;;;9.30;3.00;;;34.60;16.40;;;;;;4969248;28;20429;-66
2022/08/03 11:56:24;;;;;;;3.37;3.17;;;35.50;16.50;;;;;;4964052;28;20899;-66
2022/08/03 11:58:52;;;;;;;3.40;3.20;;;35.70;15.40;;;;;;4965591;28;20448;-67
2022/08/03 12:01:19;;;;;;;4.10;3.20;;;35.70;15.70;;;;;;4969380;28;20439;-67
2022/08/03 12:03:44;;;;;;;3.43;3.10;;;37.30;13.70;;;;;;4967959;28;20456;-67
2022/08/03 12:06:15;;;;;;;6.37;3.13;;;38.50;12.90;;;;;;4969736;28;20981;-68
2022/08/03 12:08:42;;;;;;;7.60;3.00;;;37.80;12.50;;;;;;4971420;28;20174;-67
2022/08/03 12:11:10;;;;;;;3.20;3.00;;;37.40;12.70;;;;;;4969054;28;20426;-67
2022/08/03 12:13:46;;;;;;;5.77;3.10;;;37.30;13.40;;;;;;4963073;28;20418;-67
2022/08/03 12:16:21;;;;;;;5.20;3.17;;;36.90;14.60;;;;;;4972361;28;20540;-67
2022/08/03 12:19:01;;;;;;;6.33;3.10;;;36.30;13.80;;;;;;4969841;28;20508;-67
2022/08/03 12:21:27;;;;;;;3.10;2.90;;;36.10;14.80;;;;;;4968595;28;20921;-68
2022/08/03 12:23:58;;;;;;;3.23;2.70;;;37.10;15.50;;;;;;4964772;28;20434;-67
2022/08/03 12:26:25;;;;;;;6.43;2.70;;;38.80;12.10;;;;;;4970760;28;20532;-67
2022/08/03 12:28:51;;;;;;;7.83;2.70;;;39.40;11.90;;;;;;4964462;28;20413;-68
2022/08/03 12:31:16;;;;;;;4.77;2.90;;;39.90;10.70;;;;;;4970954;28;20803;-67
2022/08/03 12:33:59;;;;;;;3.23;2.90;;;40.70;10.00;;;;;;4960384;28;20188;-67
2022/08/03 12:36:27;;;;;;;3.10;2.73;;;41.10;9.60;;;;;;4970169;28;20284;-67
2022/08/03 12:38:58;;;;;;;3.10;2.67;;;41.30;10.30;;;;;;4972206;28;20508;-68
2022/08/03 12:41:38;;;;;;;3.60;2.90;;;41.50;8.80;;;;;;4968101;28;20457;-67
2022/08/03 12:44:07;;;;;;;2.93;2.77;;;41.40;8.80;;;;;;4960594;28;20769;-67
2022/08/03 12:46:35;;;;;;;4.67;3.10;;;41.70;9.20;;;;;;4961502;28;20494;-67
2022/08/03 12:49:07;;;;;;;3.93;3.10;;;41.60;9.20;;;;;;4970011;28;20480;-67
2022/08/03 12:51:57;;;;;;;4.23;2.60;;;41.80;8.70;;;;;;4971777;28;21093;-67
2022/08/03 12:54:32;;;;;;;3.07;2.93;;;41.30;8.70;;;;;;4952657;28;20430;-67
2022/08/03 12:57:12;;;;;;;4.33;3.27;;;41.50;9.20;;;;;;4966647;28;20960;-67
2022/08/03 12:59:41;;;;;;;3.93;2.87;;;40.70;9.70;;;;;;4964397;28;20426;-68
2022/08/03 13:02:15;;;;;;;2.90;2.70;;;40.90;9.50;;;;;;4965885;28;20489;-67
2022/08/03 13:04:41;;;;;;;4.33;2.70;;;39.80;9.50;;;;;;4963195;28;20414;-67
2022/08/03 13:07:08;;;;;;;7.23;3.20;;;39.00;11.60;;;;;;4973727;28;20553;-67
2022/08/03 13:09:46;;;;;;;3.30;3.10;;;38.80;11.00;;;;;;4967706;28;20190;-68
2022/08/03 13:12:20;;;;;;;5.43;3.07;;;37.70;11.10;;;;;;4975805;28;20492;-67
2022/08/03 13:14:47;;;;;;;5.30;3.17;;;37.20;13.90;;;;;;4975319;28;20916;-67
2022/08/03 13:17:15;;;;;;;6.33;3.00;;;37.20;13.70;;;;;;4968174;28;20468;-67
2022/08/03 13:19:41;;;;;;;6.23;3.00;;;36.90;12.80;;;;;;4967165;28;20438;-67
2022/08/03 13:22:15;;;;;;;4.33;2.90;;;36.00;14.00;;;;;;4967129;28;20453;-67
2022/08/03 13:24:42;;;;;;;7.13;3.00;;;36.60;16.60;;;;;;4975469;28;20417;-67